createdAt,value
2019-03-24T00:00:59.593Z,15.83
2019-03-24T00:03:30.705Z,19.73
2019-03-24T00:06:01.777Z,21.27
2019-03-24T00:08:32.818Z,17.13
2019-03-24T00:11:02.977Z,17.93
2019-03-24T00:13:33.173Z,16.73
2019-03-24T00:16:04.509Z,21.57
2019-03-24T00:18:34.413Z,18.30
2019-03-24T00:21:04.861Z,15.93
2019-03-24T00:23:34.789Z,15.57
2019-03-24T00:26:05.517Z,22.53
2019-03-24T00:28:37.897Z,19.80
2019-03-24T00:31:08.627Z,18.43
2019-03-24T00:33:42.521Z,19.03
2019-03-24T00:36:12.890Z,17.80
2019-03-24T00:38:44.061Z,20.97
2019-03-24T00:41:14.133Z,19.57
2019-03-24T00:43:44.009Z,16.33
2019-03-24T00:46:15.698Z,22.17
2019-03-24T00:48:46.486Z,19.97
2019-03-24T00:51:17.518Z,19.80
2019-03-24T00:54:07.798Z,22.60
2019-03-24T00:56:40.301Z,21.70
2019-03-24T00:59:10.893Z,20.30
2019-03-24T01:01:42.762Z,27.40
2019-03-24T01:04:15.065Z,23.43
2019-03-24T01:06:45.222Z,23.93
2019-03-24T01:09:17.332Z,23.83
2019-03-24T01:11:49.192Z,24.33
2019-03-24T01:14:18.857Z,18.57
2019-03-24T01:16:51.437Z,20.40
2019-03-24T01:19:26.694Z,21.07
2019-03-24T01:22:01.062Z,17.93
2019-03-24T01:24:32.077Z,22.00
2019-03-24T01:27:02.067Z,25.80
2019-03-24T01:29:32.807Z,23.77
2019-03-24T01:32:03.805Z,22.53
2019-03-24T01:34:34.660Z,20.13
2019-03-24T01:37:07.765Z,20.13
2019-03-24T01:39:39.285Z,20.80
2019-03-24T01:42:10.423Z,24.20
2019-03-24T01:44:41.583Z,27.47
2019-03-24T01:47:12.706Z,19.70
2019-03-24T01:49:44.755Z,23.17
2019-03-24T01:52:16.161Z,24.63
2019-03-24T01:54:48.043Z,26.23
2019-03-24T01:57:18.200Z,17.97
2019-03-24T01:59:49.137Z,26.87
2019-03-24T02:02:21.117Z,20.47
2019-03-24T02:04:52.761Z,24.30
2019-03-24T02:07:26.632Z,19.20
2019-03-24T02:09:57.870Z,19.43
2019-03-24T02:12:29.703Z,24.10
2019-03-24T02:15:02.255Z,24.53
2019-03-24T02:17:32.005Z,21.80
2019-03-24T02:20:01.839Z,21.63
2019-03-24T02:22:31.969Z,25.30
2019-03-24T02:25:02.793Z,21.47
2019-03-24T02:27:34.085Z,24.10
2019-03-24T02:30:06.242Z,27.03
2019-03-24T02:32:37.342Z,26.10
2019-03-24T02:35:09.016Z,23.00
2019-03-24T02:37:39.427Z,27.50
2019-03-24T02:40:12.322Z,25.97
2019-03-24T02:42:42.528Z,21.93
2019-03-24T02:45:13.139Z,32.53
2019-03-24T02:47:45.985Z,23.67
2019-03-24T02:50:16.909Z,22.80
2019-03-24T02:52:51.006Z,26.83
2019-03-24T02:55:21.238Z,26.87
2019-03-24T02:57:53.558Z,25.20
2019-03-24T03:00:23.930Z,27.63
2019-03-24T03:02:56.415Z,30.53
2019-03-24T03:05:27.260Z,23.97
2019-03-24T03:07:57.038Z,24.23
2019-03-24T03:10:27.119Z,26.07
2019-03-24T03:12:58.200Z,28.73
2019-03-24T03:15:28.546Z,25.90
2019-03-24T03:17:59.686Z,24.17
2019-03-24T03:20:30.518Z,27.47
2019-03-24T03:23:05.067Z,22.27
2019-03-24T03:25:35.842Z,26.43
2019-03-24T03:28:07.260Z,27.37
2019-03-24T03:30:36.963Z,25.37
2019-03-24T03:33:09.015Z,23.80
2019-03-24T03:35:40.943Z,22.20
2019-03-24T03:38:10.834Z,24.67
2019-03-24T03:40:42.119Z,22.47
2019-03-24T03:43:13.898Z,22.03
2019-03-24T03:45:43.987Z,25.37
2019-03-24T03:48:13.980Z,23.60
2019-03-24T03:50:45.029Z,26.70
2019-03-24T03:53:16.992Z,24.23
2019-03-24T03:55:47.906Z,21.07
2019-03-24T03:58:19.894Z,24.57
2019-03-24T04:00:50.235Z,28.43
2019-03-24T04:03:21.257Z,21.60
2019-03-24T04:05:52.536Z,28.27
2019-03-24T04:08:23.814Z,21.30
2019-03-24T04:10:57.144Z,23.00
2019-03-24T04:13:28.254Z,19.67
2019-03-24T04:15:58.363Z,25.43
2019-03-24T04:18:31.923Z,25.00
2019-03-24T04:21:02.012Z,17.73
2019-03-24T04:23:32.189Z,16.03
2019-03-24T04:26:02.482Z,18.13
2019-03-24T04:28:33.151Z,22.87
2019-03-24T04:31:02.889Z,22.77
2019-03-24T04:33:33.066Z,23.73
2019-03-24T04:36:03.566Z,22.00
2019-03-24T04:38:33.833Z,22.40
2019-03-24T04:41:05.042Z,21.00
2019-03-24T04:43:36.205Z,22.93
2019-03-24T04:46:07.420Z,20.20
2019-03-24T04:48:37.501Z,24.93
2019-03-24T04:51:07.825Z,20.83
2019-03-24T04:53:38.837Z,20.97
2019-03-24T04:56:09.985Z,21.67
2019-03-24T04:58:40.820Z,27.30
2019-03-24T05:01:10.874Z,22.67
2019-03-24T05:03:40.930Z,26.37
2019-03-24T05:06:11.370Z,20.70
2019-03-24T05:08:42.198Z,24.60
2019-03-24T05:11:13.321Z,21.13
2019-03-24T05:13:44.005Z,20.80
2019-03-24T05:16:18.054Z,21.17
2019-03-24T05:18:49.165Z,19.20
2019-03-24T05:21:20.845Z,20.43
2019-03-24T05:23:52.665Z,19.60
2019-03-24T05:26:23.010Z,25.10
2019-03-24T05:28:52.937Z,22.77
2019-03-24T05:31:25.338Z,18.47
2019-03-24T05:33:58.445Z,23.43
2019-03-24T05:36:28.053Z,27.07
2019-03-24T05:39:00.454Z,26.60
2019-03-24T05:41:30.353Z,20.27
2019-03-24T05:44:02.336Z,24.97
2019-03-24T05:46:33.006Z,19.97
2019-03-24T05:49:04.073Z,20.67
2019-03-24T05:51:35.013Z,17.03
2019-03-24T05:54:07.358Z,23.90
2019-03-24T05:56:39.160Z,23.33
2019-03-24T05:59:10.144Z,24.33
2019-03-24T06:01:41.013Z,25.50
2019-03-24T06:04:11.049Z,21.37
2019-03-24T06:06:40.866Z,18.07
2019-03-24T06:09:11.901Z,24.47
2019-03-24T06:11:44.711Z,24.10
2019-03-24T06:14:15.724Z,23.30
2019-03-24T06:16:46.668Z,25.60
2019-03-24T06:19:19.473Z,18.63
2019-03-24T06:21:52.109Z,19.73
2019-03-24T06:24:24.691Z,20.23
2019-03-24T06:26:54.657Z,24.40
2019-03-24T06:29:24.525Z,17.03
2019-03-24T06:31:54.945Z,23.53
2019-03-24T06:34:26.835Z,31.27
2019-03-24T06:36:57.232Z,25.90
2019-03-24T06:39:31.815Z,30.87
2019-03-24T06:42:01.994Z,17.73
2019-03-24T06:44:33.114Z,21.63
2019-03-24T06:47:07.141Z,25.77
2019-03-24T06:49:38.868Z,26.10
2019-03-24T06:52:09.041Z,30.83
2019-03-24T06:54:39.262Z,25.83
2019-03-24T06:57:09.989Z,18.93
2019-03-24T06:59:40.717Z,27.63
2019-03-24T07:02:11.954Z,29.40
2019-03-24T07:04:45.141Z,25.10
2019-03-24T07:07:15.363Z,28.30
2019-03-24T07:09:46.604Z,25.30
2019-03-24T07:12:17.737Z,23.80
2019-03-24T07:14:49.875Z,29.50
2019-03-24T07:17:19.696Z,26.57
2019-03-24T07:19:49.688Z,27.07
2019-03-24T07:22:20.314Z,24.40
2019-03-24T07:24:51.002Z,17.80
2019-03-24T07:27:21.185Z,21.60
2019-03-24T07:29:52.925Z,18.67
2019-03-24T07:32:24.055Z,26.30
2019-03-24T07:34:54.832Z,27.43
2019-03-24T07:37:24.605Z,19.67
2019-03-24T07:39:55.314Z,25.63
2019-03-24T07:42:25.107Z,24.90
2019-03-24T07:44:58.309Z,24.67
2019-03-24T07:47:29.081Z,26.10
2019-03-24T07:49:58.829Z,26.17
2019-03-24T07:52:28.910Z,24.40
2019-03-24T07:54:59.849Z,22.83
2019-03-24T07:57:30.449Z,20.90
2019-03-24T08:00:01.473Z,26.80
2019-03-24T08:02:32.938Z,26.00
2019-03-24T08:05:03.253Z,26.93
2019-03-24T08:07:33.313Z,28.33
2019-03-24T08:10:04.997Z,30.63
2019-03-24T08:12:35.742Z,26.20
2019-03-24T08:15:06.477Z,25.63
2019-03-24T08:17:37.148Z,26.67
2019-03-24T08:20:07.883Z,25.80
2019-03-24T08:22:38.804Z,25.43
2019-03-24T08:25:10.235Z,21.83
2019-03-24T08:27:41.096Z,24.30
2019-03-24T08:30:11.565Z,25.07
2019-03-24T08:32:42.401Z,24.23
2019-03-24T08:35:13.664Z,24.17
2019-03-24T08:37:43.834Z,28.83
2019-03-24T08:40:14.245Z,22.60
2019-03-24T08:42:45.937Z,31.10
2019-03-24T08:45:18.953Z,29.73
2019-03-24T08:47:49.871Z,22.47
2019-03-24T08:50:22.694Z,21.27
2019-03-24T08:52:53.778Z,28.40
2019-03-24T08:55:24.617Z,22.37
2019-03-24T08:57:56.069Z,29.53
2019-03-24T09:00:30.780Z,26.10
2019-03-24T09:02:59.801Z,26.43
2019-03-24T09:05:33.557Z,28.00
2019-03-24T09:08:04.150Z,27.63
2019-03-24T09:10:34.897Z,31.90
2019-03-24T09:13:07.093Z,27.17
2019-03-24T09:15:40.074Z,20.93
2019-03-24T09:18:09.977Z,24.23
2019-03-24T09:20:41.808Z,21.27
2019-03-24T09:23:12.801Z,20.70
2019-03-24T09:25:44.640Z,24.67
2019-03-24T09:28:15.382Z,22.10
2019-03-24T09:30:45.139Z,19.47
2019-03-24T09:33:15.964Z,24.47
2019-03-24T09:35:46.692Z,21.43
2019-03-24T09:38:17.842Z,18.27
2019-03-24T09:40:48.527Z,19.30
2019-03-24T09:43:18.343Z,14.73
2019-03-24T09:45:49.250Z,19.80
2019-03-24T09:48:20.288Z,18.90
2019-03-24T09:50:52.129Z,20.60
2019-03-24T09:53:23.129Z,18.87
2019-03-24T09:55:55.880Z,18.93
2019-03-24T09:58:25.606Z,18.03
2019-03-24T10:00:56.257Z,19.10
2019-03-24T10:03:28.998Z,23.77
2019-03-24T10:06:00.199Z,19.50
2019-03-24T10:08:32.846Z,21.40
2019-03-24T10:11:02.598Z,20.20
2019-03-24T10:13:33.409Z,22.67
2019-03-24T10:16:05.993Z,17.77
2019-03-24T10:18:36.312Z,18.23
2019-03-24T10:21:06.504Z,16.60
2019-03-24T10:23:36.496Z,16.60
2019-03-24T10:26:06.306Z,13.03
2019-03-24T10:28:39.013Z,14.13
2019-03-24T10:31:09.177Z,21.37
2019-03-24T10:33:40.133Z,24.27
2019-03-24T10:36:09.893Z,22.10
2019-03-24T10:38:39.973Z,19.23
2019-03-24T10:41:10.902Z,20.53
2019-03-24T10:43:40.688Z,17.07
2019-03-24T10:46:11.946Z,15.17
2019-03-24T10:48:43.187Z,19.50
2019-03-24T10:51:15.887Z,18.73
2019-03-24T10:53:46.747Z,20.20
2019-03-24T10:56:16.479Z,22.53
2019-03-24T10:58:47.815Z,21.60
2019-03-24T11:01:18.943Z,24.83
2019-03-24T11:03:52.103Z,20.70
2019-03-24T11:06:29.931Z,17.50
2019-03-24T11:09:01.123Z,22.47
2019-03-24T11:11:33.306Z,24.47
2019-03-24T11:14:03.505Z,24.47
2019-03-24T11:16:35.939Z,21.07
2019-03-24T11:19:07.805Z,25.87
2019-03-24T11:21:37.565Z,21.33
2019-03-24T11:24:09.139Z,24.77
2019-03-24T11:26:38.899Z,20.43
2019-03-24T11:29:09.509Z,22.67
2019-03-24T11:31:40.227Z,22.50
2019-03-24T11:34:10.009Z,21.23
2019-03-24T11:36:40.098Z,18.77
2019-03-24T11:39:11.209Z,19.73
2019-03-24T11:41:42.688Z,19.50
2019-03-24T11:44:14.647Z,24.30
2019-03-24T11:46:44.441Z,17.43
2019-03-24T11:49:16.510Z,13.57
2019-03-24T11:51:45.777Z,20.33
2019-03-24T11:54:15.554Z,18.33
2019-03-24T11:56:46.257Z,15.03
2019-03-24T11:59:18.150Z,18.50
2019-03-24T12:01:49.357Z,13.33
2019-03-24T12:04:20.228Z,18.13
2019-03-24T12:06:50.817Z,10.00
2019-03-24T12:09:21.557Z,12.70
2019-03-24T12:11:52.681Z,11.30
2019-03-24T12:14:22.831Z,10.93
2019-03-24T12:16:55.237Z,10.37
2019-03-24T12:19:26.697Z,12.13
2019-03-24T12:21:57.517Z,12.23
2019-03-24T12:24:28.133Z,9.83
2019-03-24T12:27:00.025Z,14.23
2019-03-24T12:29:32.842Z,10.77
2019-03-24T12:32:04.043Z,16.73
2019-03-24T12:34:34.877Z,12.23
2019-03-24T12:37:06.334Z,9.90
2019-03-24T12:39:36.626Z,7.27
2019-03-24T12:42:08.325Z,8.63
2019-03-24T12:44:40.085Z,7.73
2019-03-24T12:47:11.822Z,8.17
2019-03-24T12:49:41.608Z,8.07
2019-03-24T12:52:13.351Z,8.90
2019-03-24T12:54:43.491Z,13.37
2019-03-24T12:57:14.630Z,8.53
2019-03-24T12:59:44.797Z,8.67
2019-03-24T13:02:15.533Z,8.53
2019-03-24T13:04:46.628Z,9.27
2019-03-24T13:07:17.766Z,11.93
2019-03-24T13:09:47.677Z,10.07
2019-03-24T13:12:18.382Z,10.07
2019-03-24T13:14:49.820Z,12.13
2019-03-24T13:17:19.723Z,9.00
2019-03-24T13:19:49.803Z,11.33
2019-03-24T13:22:19.569Z,9.27
2019-03-24T13:24:49.785Z,11.43
2019-03-24T13:27:19.685Z,12.90
2019-03-24T13:29:51.112Z,11.60
2019-03-24T13:32:21.014Z,12.07
2019-03-24T13:34:53.424Z,12.53
2019-03-24T13:37:24.106Z,12.40
2019-03-24T13:39:54.821Z,13.33
2019-03-24T13:42:26.253Z,13.37
2019-03-24T13:44:57.310Z,11.10
2019-03-24T13:47:29.168Z,11.47
2019-03-24T13:50:01.042Z,12.53
2019-03-24T13:52:30.837Z,12.03
2019-03-24T13:55:00.609Z,14.43
2019-03-24T13:57:31.447Z,9.67
2019-03-24T14:00:01.675Z,7.17
2019-03-24T14:02:33.708Z,7.63
2019-03-24T14:05:03.787Z,9.30
2019-03-24T14:07:34.546Z,10.83
2019-03-24T14:10:08.279Z,9.73
2019-03-24T14:12:38.163Z,7.97
2019-03-24T14:15:10.208Z,6.83
2019-03-24T14:17:43.796Z,9.30
2019-03-24T14:20:15.023Z,7.77
2019-03-24T14:22:46.341Z,10.23
2019-03-24T14:25:18.981Z,11.33
2019-03-24T14:27:48.733Z,10.40
2019-03-24T14:30:22.807Z,15.37
2019-03-24T14:32:53.627Z,10.00
2019-03-24T14:35:24.331Z,14.83
2019-03-24T14:37:57.066Z,11.53
2019-03-24T14:40:26.822Z,11.23
2019-03-24T14:42:57.633Z,9.50
2019-03-24T14:45:28.393Z,12.47
2019-03-24T14:47:58.546Z,13.73
2019-03-24T14:50:31.093Z,11.93
2019-03-24T14:53:03.731Z,15.43
2019-03-24T14:55:34.797Z,10.67
2019-03-24T14:58:05.974Z,11.97
2019-03-24T15:00:37.789Z,11.00
2019-03-24T15:03:09.011Z,11.10
2019-03-24T15:05:43.055Z,6.27
2019-03-24T15:08:14.318Z,9.77
2019-03-24T15:10:47.818Z,9.30
2019-03-24T15:13:18.586Z,9.53
2019-03-24T15:15:48.661Z,8.47
2019-03-24T15:18:18.878Z,8.73
2019-03-24T15:20:49.733Z,10.63
2019-03-24T15:23:20.413Z,7.27
2019-03-24T15:25:49.698Z,10.77
2019-03-24T15:28:22.512Z,10.87
2019-03-24T15:30:53.713Z,9.83
2019-03-24T15:33:26.357Z,5.33
2019-03-24T15:35:55.578Z,6.53
2019-03-24T15:38:25.602Z,9.00
2019-03-24T15:40:56.803Z,7.70
2019-03-24T15:43:28.655Z,9.20
2019-03-24T15:45:58.364Z,9.77
2019-03-24T15:48:29.009Z,11.17
2019-03-24T15:50:59.054Z,8.63
2019-03-24T15:53:32.935Z,8.53
2019-03-24T15:56:03.662Z,8.63
2019-03-24T15:58:33.425Z,8.30
2019-03-24T16:01:03.498Z,9.73
2019-03-24T16:03:33.381Z,8.60
2019-03-24T16:06:03.481Z,8.57
2019-03-24T16:08:34.405Z,14.07
2019-03-24T16:11:04.184Z,12.20
2019-03-24T16:13:36.141Z,12.83
2019-03-24T16:16:07.014Z,12.10
2019-03-24T16:18:39.439Z,13.93
2019-03-24T16:21:10.489Z,12.30
2019-03-24T16:23:41.667Z,12.80
2019-03-24T16:26:11.542Z,11.47
2019-03-24T16:28:42.176Z,13.10
2019-03-24T16:31:13.694Z,15.00
2019-03-24T16:33:43.899Z,12.90
2019-03-24T16:36:15.057Z,15.47
2019-03-24T16:38:49.091Z,15.00
2019-03-24T16:41:18.704Z,16.13
2019-03-24T16:43:50.169Z,13.07
2019-03-24T16:46:21.174Z,14.27
2019-03-24T16:48:54.925Z,11.73
2019-03-24T16:51:25.825Z,14.30
2019-03-24T16:53:55.918Z,12.93
2019-03-24T16:56:26.769Z,15.03
2019-03-24T16:58:58.391Z,11.93
2019-03-24T17:01:29.047Z,16.33
2019-03-24T17:03:59.297Z,15.53
2019-03-24T17:06:29.471Z,13.90
2019-03-24T17:09:02.065Z,16.97
2019-03-24T17:11:33.063Z,18.57
2019-03-24T17:14:03.869Z,19.73
2019-03-24T17:16:34.552Z,18.53
2019-03-24T17:19:03.540Z,10.90
2019-03-24T17:21:33.609Z,17.87
2019-03-24T17:24:03.806Z,16.13
2019-03-24T17:26:33.703Z,12.37
2019-03-24T17:29:04.747Z,13.30
2019-03-24T17:31:35.889Z,11.77
2019-03-24T17:34:06.701Z,11.97
2019-03-24T17:36:36.465Z,9.47
2019-03-24T17:39:09.164Z,9.00
2019-03-24T17:41:41.493Z,10.53
2019-03-24T17:44:17.126Z,12.00
2019-03-24T17:46:46.877Z,12.70
2019-03-24T17:49:16.757Z,11.97
2019-03-24T17:51:47.500Z,16.13
2019-03-24T17:54:18.514Z,14.37
2019-03-24T17:56:48.691Z,14.27
2019-03-24T17:59:19.750Z,11.80
2019-03-24T18:01:49.517Z,10.80
2019-03-24T18:04:24.520Z,19.00
2019-03-24T18:06:56.111Z,12.80
2019-03-24T18:09:28.385Z,10.33
2019-03-24T18:12:00.881Z,11.97
2019-03-24T18:14:33.325Z,12.23
2019-03-24T18:17:04.365Z,11.13
2019-03-24T18:19:34.366Z,15.90
2019-03-24T18:22:11.266Z,11.70
2019-03-24T18:24:35.101Z,11.40
2019-03-24T18:27:05.253Z,9.63
2019-03-24T18:29:36.381Z,9.03
2019-03-24T18:32:07.848Z,9.83
2019-03-24T18:34:37.742Z,9.47
2019-03-24T18:37:10.105Z,9.00
2019-03-24T18:39:43.056Z,10.70
2019-03-24T18:42:14.215Z,11.93
2019-03-24T18:44:45.397Z,9.30
2019-03-24T18:47:16.422Z,8.10
2019-03-24T18:49:47.268Z,13.20
2019-03-24T18:52:22.622Z,12.03
2019-03-24T18:54:52.808Z,9.97
2019-03-24T18:57:23.542Z,16.13
2019-03-24T18:59:54.653Z,10.33
2019-03-24T19:02:24.774Z,10.87
2019-03-24T19:04:54.621Z,14.63
2019-03-24T19:07:26.622Z,14.50
2019-03-24T19:09:57.401Z,12.70
2019-03-24T19:12:28.853Z,13.53
2019-03-24T19:15:00.015Z,11.53
2019-03-24T19:17:30.893Z,14.03
2019-03-24T19:20:01.683Z,11.90
2019-03-24T19:22:33.744Z,11.93
2019-03-24T19:25:04.957Z,12.27
2019-03-24T19:27:37.796Z,10.10
2019-03-24T19:30:16.494Z,9.30
2019-03-24T19:32:46.947Z,10.03
2019-03-24T19:35:18.565Z,13.70
2019-03-24T19:37:50.949Z,7.53
2019-03-24T19:40:29.371Z,15.30
2019-03-24T19:42:59.133Z,9.57
2019-03-24T19:45:29.200Z,10.50
2019-03-24T19:48:00.249Z,12.50
2019-03-24T19:50:33.713Z,12.43
2019-03-24T19:53:04.490Z,14.23
2019-03-24T19:55:34.670Z,12.60
2019-03-24T19:58:07.829Z,11.67
2019-03-24T20:00:38.210Z,11.87
2019-03-24T20:03:09.555Z,11.97
2019-03-24T20:05:41.005Z,11.40
2019-03-24T20:08:12.167Z,10.43
2019-03-24T20:10:42.045Z,60.50
2019-03-24T20:13:12.785Z,16.30
2019-03-24T20:15:43.715Z,15.20
2019-03-24T20:18:13.980Z,11.30
2019-03-24T20:20:44.183Z,13.83
2019-03-24T20:23:15.311Z,13.77
2019-03-24T20:25:47.061Z,12.90
2019-03-24T20:28:17.898Z,11.67
2019-03-24T20:30:47.681Z,14.17
2019-03-24T20:33:20.423Z,8.73
2019-03-24T20:35:50.679Z,17.03
2019-03-24T20:38:23.234Z,12.00
2019-03-24T20:40:54.228Z,16.73
2019-03-24T20:43:27.027Z,10.60
2019-03-24T20:45:57.738Z,13.90
2019-03-24T20:48:29.189Z,12.43
2019-03-24T20:51:00.313Z,11.90
2019-03-24T20:53:33.706Z,13.50
2019-03-24T20:56:03.949Z,16.43
2019-03-24T20:58:34.113Z,13.50
2019-03-24T21:01:04.144Z,14.50
2019-03-24T21:03:35.262Z,16.50
2019-03-24T21:06:05.510Z,13.63
2019-03-24T21:08:36.741Z,12.77
2019-03-24T21:11:07.542Z,13.33
2019-03-24T21:13:37.313Z,15.43
2019-03-24T21:16:10.697Z,13.53
2019-03-24T21:18:41.530Z,14.07
2019-03-24T21:21:14.342Z,15.73
2019-03-24T21:23:48.517Z,12.40
2019-03-24T21:26:19.673Z,11.80
2019-03-24T21:28:50.949Z,11.10
2019-03-24T21:31:24.071Z,13.40
2019-03-24T21:33:54.875Z,12.13
2019-03-24T21:36:29.269Z,15.13
2019-03-24T21:39:00.365Z,9.80
2019-03-24T21:41:34.246Z,14.07
2019-03-24T21:44:04.451Z,15.33
2019-03-24T21:46:35.252Z,12.77
2019-03-24T21:49:07.977Z,13.20
2019-03-24T21:51:38.261Z,15.47
2019-03-24T21:54:09.314Z,14.93
2019-03-24T21:56:40.375Z,10.93
2019-03-24T21:59:10.311Z,14.60
2019-03-24T22:01:41.259Z,12.40
2019-03-24T22:04:13.649Z,16.53
2019-03-24T22:06:45.009Z,14.40
2019-03-24T22:09:16.879Z,18.10
2019-03-24T22:11:47.043Z,17.37
2019-03-24T22:14:17.366Z,15.07
2019-03-24T22:16:48.093Z,19.70
2019-03-24T22:19:19.061Z,11.90
2019-03-24T22:21:52.761Z,13.87
2019-03-24T22:24:25.641Z,18.00
2019-03-24T22:26:56.365Z,17.53
2019-03-24T22:29:26.166Z,16.57
2019-03-24T22:31:58.627Z,21.83
2019-03-24T22:34:29.798Z,22.23
2019-03-24T22:37:00.674Z,22.57
2019-03-24T22:39:30.025Z,22.87
2019-03-24T22:42:00.677Z,29.43
2019-03-24T22:44:31.965Z,25.13
2019-03-24T22:47:01.819Z,33.37
2019-03-24T22:49:32.533Z,29.27
2019-03-24T22:52:07.417Z,34.67
2019-03-24T22:54:37.239Z,27.13
2019-03-24T22:57:06.997Z,28.07
2019-03-24T22:59:38.034Z,25.67
2019-03-24T23:02:08.209Z,19.03
2019-03-24T23:04:39.051Z,17.00
2019-03-24T23:07:08.825Z,20.20
2019-03-24T23:09:38.901Z,15.13
2019-03-24T23:12:09.732Z,22.40
2019-03-24T23:14:39.826Z,18.47
2019-03-24T23:17:09.961Z,14.60
2019-03-24T23:19:43.942Z,18.03
2019-03-24T23:22:15.129Z,13.20
2019-03-24T23:24:46.089Z,15.53
2019-03-24T23:27:17.161Z,19.53
2019-03-24T23:29:49.041Z,16.10
2019-03-24T23:32:20.101Z,13.17
2019-03-24T23:34:52.501Z,11.83
2019-03-24T23:37:23.223Z,22.87
2019-03-24T23:39:54.550Z,13.60
2019-03-24T23:42:27.113Z,14.20
2019-03-24T23:44:58.078Z,16.27
2019-03-24T23:47:30.333Z,13.70
2019-03-24T23:50:03.021Z,16.57
2019-03-24T23:52:32.837Z,14.03
2019-03-24T23:55:02.513Z,17.10
2019-03-24T23:57:31.813Z,22.70
